Time;durP1;ratioP1;P1;durP2;ratioP2;P2;SDS_P1;SDS_P2;PMS_P1;PMS_P2;Temp;Humidity;BMP_temperature;BMP_pressure;BME280_temperature;BME280_humidity;BME280_pressure;Samples;Min_cycle;Max_cycle;Signal;HPM_P1;HPM_P2
2021/05/24 00:02:07;;;;;;;2.10;1.53;;;;;;;13.32;49.73;100137.97;5083664;28;21117;-71
2021/05/24 00:04:34;;;;;;;3.63;1.20;;;;;;;13.28;50.00;100139.25;5083962;28;20474;-71
2021/05/24 00:07:00;;;;;;;1.90;1.70;;;;;;;13.49;49.64;100141.59;5083094;28;20565;-70
2021/05/24 00:09:26;;;;;;;2.07;1.60;;;;;;;13.42;49.31;100129.78;5083421;28;20486;-71
2021/05/24 00:11:54;;;;;;;5.73;1.50;;;;;;;13.33;49.49;100132.47;5083224;28;20558;-71
2021/05/24 00:14:21;;;;;;;3.20;1.23;;;;;;;13.44;49.04;100127.81;5084254;28;20513;-71
2021/05/24 00:16:47;;;;;;;2.43;1.10;;;;;;;13.59;48.38;100128.00;5083891;28;20625;-71
2021/05/24 00:19:13;;;;;;;3.07;1.50;;;;;;;13.45;48.16;100119.56;5083841;28;20479;-70
2021/05/24 00:21:40;;;;;;;1.80;1.33;;;;;;;13.53;49.21;100121.44;5083806;28;20479;-70
2021/05/24 00:24:06;;;;;;;3.07;1.43;;;;;;;13.26;49.70;100114.41;5084111;28;20444;-70
2021/05/24 00:26:33;;;;;;;2.53;1.47;;;;;;;13.30;51.92;100121.16;5083637;28;20524;-71
2021/05/24 00:29:00;;;;;;;2.40;1.63;;;;;;;13.17;49.44;100110.84;5083781;28;20827;-71
2021/05/24 00:31:26;;;;;;;2.40;1.43;;;;;;;13.04;49.66;100116.69;5083501;28;20471;-71
2021/05/24 00:33:52;;;;;;;1.37;1.23;;;;;;;13.17;48.48;100105.50;5083555;28;20444;-71
2021/05/24 00:36:18;;;;;;;3.53;1.60;;;;;;;13.23;51.05;100112.03;5083238;28;20504;-71
2021/05/24 00:38:45;;;;;;;1.67;1.57;;;;;;;13.01;49.94;100106.25;5082955;28;20454;-71
2021/05/24 00:41:11;;;;;;;5.70;1.70;;;;;;;13.23;50.63;100101.31;5083104;28;20491;-71
2021/05/24 00:43:37;;;;;;;2.20;1.73;;;;;;;13.03;52.03;100103.41;5084611;28;20949;-71
2021/05/24 00:46:04;;;;;;;2.97;2.23;;;;;;;12.82;51.22;100097.44;5083246;28;20479;-71
2021/05/24 00:48:31;;;;;;;2.60;2.10;;;;;;;12.70;52.17;100098.69;5083272;28;20475;-71
2021/05/24 00:50:57;;;;;;;3.03;2.37;;;;;;;12.53;53.19;100094.22;5082746;28;20475;-70
2021/05/24 00:53:23;;;;;;;4.67;2.60;;;;;;;12.43;53.85;100087.13;5083740;28;20483;-71
2021/05/24 00:55:49;;;;;;;3.17;2.10;;;;;;;12.48;53.41;100083.13;5082890;28;20503;-71
2021/05/24 00:58:15;;;;;;;4.70;2.10;;;;;;;12.47;53.22;100081.47;5084257;28;20472;-71
2021/05/24 01:00:43;;;;;;;4.70;2.30;;;;;;;12.21;54.21;100080.44;5083299;28;20507;-71
2021/05/24 01:03:12;;;;;;;3.33;2.50;;;;;;;12.20;54.88;100078.75;5083483;28;20447;-71
2021/05/24 01:05:39;;;;;;;3.13;2.53;;;;;;;12.06;54.80;100068.56;5082583;28;20497;-71
2021/05/24 01:08:06;;;;;;;4.03;3.23;;;;;;;12.20;54.81;100072.53;5083534;28;20669;-71
2021/05/24 01:10:33;;;;;;;2.77;2.20;;;;;;;12.02;55.63;100065.38;5082891;28;20472;-71
2021/05/24 01:12:59;;;;;;;3.67;2.73;;;;;;;11.87;55.90;100059.69;5083431;28;20459;-70
2021/05/24 01:15:27;;;;;;;3.57;2.63;;;;;;;11.83;56.13;100063.66;5082790;28;20541;-71
2021/05/24 01:17:55;;;;;;;3.53;2.90;;;;;;;11.93;56.18;100054.75;5083534;28;20836;-71
2021/05/24 01:20:22;;;;;;;4.33;2.83;;;;;;;11.66;56.76;100048.44;5082792;28;20516;-71
2021/05/24 01:22:57;;;;;;;3.93;2.83;;;;;;;11.69;56.75;100048.97;5083225;28;20467;-71
2021/05/24 01:25:24;;;;;;;2.80;2.07;;;;;;;11.53;56.85;100051.50;5082508;28;20448;-70
2021/05/24 01:27:50;;;;;;;5.70;2.60;;;;;;;11.34;57.43;100044.44;5082691;28;20480;-70
2021/05/24 01:30:18;;;;;;;4.17;2.63;;;;;;;11.43;57.20;100042.69;5082310;28;20483;-71
2021/05/24 01:32:44;;;;;;;5.07;2.70;;;;;;;11.54;56.86;100042.44;5083308;28;20459;-71
2021/05/24 01:35:11;;;;;;;4.63;2.80;;;;;;;11.48;57.22;100040.41;5081951;28;20488;-71
2021/05/24 01:37:37;;;;;;;5.60;3.00;;;;;;;11.48;57.16;100037.72;5083221;28;20707;-71
2021/05/24 01:40:05;;;;;;;4.60;2.53;;;;;;;11.70;56.68;100036.44;5081838;28;20507;-70
2021/05/24 01:42:31;;;;;;;3.27;2.40;;;;;;;11.35;57.01;100031.88;5082440;28;21012;-70
2021/05/24 01:44:58;;;;;;;2.30;1.83;;;;;;;11.72;55.03;100033.56;5083192;28;20563;-70
2021/05/24 01:47:24;;;;;;;3.27;2.27;;;;;;;11.82;55.48;100024.50;5082016;28;20533;-71
2021/05/24 01:49:50;;;;;;;3.03;2.50;;;;;;;11.79;55.72;100030.16;5082654;28;20606;-71
2021/05/24 01:52:18;;;;;;;2.70;2.50;;;;;;;11.69;55.78;100030.22;5081923;28;20479;-70
2021/05/24 01:54:45;;;;;;;5.40;2.47;;;;;;;11.61;56.11;100029.31;5082913;28;20456;-71
2021/05/24 01:57:13;;;;;;;4.10;2.10;;;;;;;11.79;55.30;100023.97;5081799;28;20484;-71
2021/05/24 01:59:39;;;;;;;3.30;2.33;;;;;;;11.63;55.88;100019.28;5082706;28;20484;-70
2021/05/24 02:02:06;;;;;;;6.50;2.27;;;;;;;11.75;55.13;100018.06;5081065;28;20484;-71
2021/05/24 02:04:34;;;;;;;2.73;2.23;;;;;;;11.86;55.44;100017.81;5082658;28;20450;-70
2021/05/24 02:07:00;;;;;;;5.70;1.93;;;;;;;11.86;55.28;100019.66;5082148;28;20483;-71
2021/05/24 02:09:26;;;;;;;4.20;2.37;;;;;;;11.83;55.40;100023.47;5081363;28;20452;-71
2021/05/24 02:11:53;;;;;;;2.17;1.70;;;;;;;11.90;54.93;100018.34;5081497;28;20507;-71
2021/05/24 02:14:20;;;;;;;2.30;1.30;;;;;;;11.97;54.01;100021.28;5081777;28;20510;-72
2021/05/24 02:16:49;;;;;;;3.23;1.90;;;;;;;11.88;55.43;100025.69;5082231;28;20476;-70
2021/05/24 02:19:16;;;;;;;6.40;2.13;;;;;;;11.72;55.53;100017.50;5081421;28;20547;-72
2021/05/24 02:21:42;;;;;;;2.10;1.70;;;;;;;11.72;55.56;100014.84;5081336;28;20543;-72
2021/05/24 02:24:10;;;;;;;4.80;2.20;;;;;;;11.77;55.20;100020.56;5082036;28;20482;-71
2021/05/24 02:26:38;;;;;;;3.83;1.80;;;;;;;11.63;55.10;100019.28;5080766;28;20479;-73
2021/05/24 02:29:05;;;;;;;2.60;1.70;;;;;;;12.07;54.30;100030.06;5082424;28;20455;-71
2021/05/24 02:31:32;;;;;;;4.47;1.07;;;;;;;12.14;54.16;100015.06;5081154;28;21013;-71
2021/05/24 02:33:58;;;;;;;1.90;1.70;;;;;;;12.22;53.84;100015.13;5081507;28;20464;-71
2021/05/24 02:36:26;;;;;;;3.37;1.67;;;;;;;12.07;54.04;100016.69;5080740;28;20492;-72
2021/05/24 02:38:52;;;;;;;3.50;1.93;;;;;;;12.04;54.95;100014.31;5081244;28;20440;-71
2021/05/24 02:41:18;;;;;;;2.80;2.10;;;;;;;12.04;54.89;100012.44;5080975;28;20475;-70
2021/05/24 02:43:44;;;;;;;2.90;2.30;;;;;;;11.77;55.78;100008.03;5081951;28;20483;-71
2021/05/24 02:46:11;;;;;;;3.27;2.00;;;;;;;11.61;56.07;100006.06;5081259;28;20503;-71
2021/05/24 02:48:38;;;;;;;3.83;1.70;;;;;;;11.64;56.02;99999.53;5081014;28;20471;-71
2021/05/24 02:51:05;;;;;;;3.20;1.80;;;;;;;11.37;56.64;100000.44;5080963;28;20471;-71
2021/05/24 02:53:31;;;;;;;2.80;1.87;;;;;;;11.41;56.55;99993.81;5081788;28;20459;-71
2021/05/24 02:55:57;;;;;;;3.93;2.57;;;;;;;11.26;56.92;99990.81;5080669;28;20529;-72
2021/05/24 02:58:23;;;;;;;4.53;1.53;;;;;;;11.25;57.51;99991.81;5081307;28;20522;-70
2021/05/24 03:00:50;;;;;;;2.10;1.90;;;;;;;11.05;57.78;99991.09;5080432;28;20484;-70
2021/05/24 03:03:19;;;;;;;3.93;2.10;;;;;;;11.01;57.96;99977.19;5080726;28;20953;-71
2021/05/24 03:05:46;;;;;;;7.40;2.00;;;;;;;11.15;58.01;99988.38;5080535;28;20510;-71
2021/05/24 03:08:12;;;;;;;3.23;2.00;;;;;;;10.82;58.88;99978.13;5081146;28;20440;-71
2021/05/24 03:10:39;;;;;;;3.20;2.70;;;;;;;10.68;59.32;99973.28;5080190;28;20538;-71
2021/05/24 03:13:05;;;;;;;5.20;2.57;;;;;;;10.76;59.44;99976.03;5081078;28;20464;-72
2021/05/24 03:15:32;;;;;;;4.40;2.20;;;;;;;10.38;60.34;99980.59;5080241;28;20468;-73
2021/05/24 03:17:58;;;;;;;5.13;2.53;;;;;;;10.59;60.07;99972.34;5081209;28;20527;-72
2021/05/24 03:20:24;;;;;;;2.83;2.47;;;;;;;10.77;59.68;99963.53;5080228;28;20495;-72
2021/05/24 03:22:51;;;;;;;3.37;2.20;;;;;;;10.70;59.70;99960.59;5081193;28;20486;-72
2021/05/24 03:25:18;;;;;;;3.03;2.23;;;;;;;10.63;60.29;99959.50;5080230;28;20500;-72
2021/05/24 03:27:45;;;;;;;4.53;2.13;;;;;;;10.65;60.16;99960.19;5081557;28;20444;-72
2021/05/24 03:30:12;;;;;;;4.87;2.50;;;;;;;10.47;61.40;99966.34;5080865;28;20865;-72
2021/05/24 03:32:38;;;;;;;2.80;2.17;;;;;;;10.56;60.39;99961.94;5079928;28;20462;-72
2021/05/24 03:35:06;;;;;;;3.20;2.60;;;;;;;10.95;59.62;99960.88;5080385;28;20440;-72
2021/05/24 03:37:32;;;;;;;2.60;1.77;;;;;;;11.37;58.57;99961.16;5081070;28;20494;-72
2021/05/24 03:39:59;;;;;;;3.20;2.50;;;;;;;12.09;56.52;99963.75;5079862;28;20486;-72
2021/05/24 03:42:25;;;;;;;5.70;2.93;;;;;;;12.82;53.93;99957.91;5080231;28;20529;-72
2021/05/24 03:44:51;;;;;;;3.00;2.37;;;;;;;13.33;52.00;99951.69;5080992;28;20931;-70
2021/05/24 03:47:18;;;;;;;4.20;1.73;;;;;;;14.75;48.64;99966.47;5080671;28;20517;-71
2021/05/24 03:49:45;;;;;;;2.80;1.80;;;;;;;15.32;46.73;99968.03;5080127;28;20547;-71
2021/05/24 03:52:12;;;;;;;2.07;1.53;;;;;;;15.82;44.64;99957.75;5079821;28;20505;-71
2021/05/24 03:54:38;;;;;;;4.20;1.80;;;;;;;15.88;44.59;99959.69;5081285;28;20449;-71
2021/05/24 03:57:06;;;;;;;5.50;1.60;;;;;;;15.25;46.00;99957.13;5080145;28;20512;-70
2021/05/24 03:59:32;;;;;;;6.40;2.30;;;;;;;16.49;43.50;99956.91;5081103;28;20459;-71
2021/05/24 04:01:58;;;;;;;2.40;1.27;;;;;;;16.05;44.47;99959.56;5079555;28;20487;-71
2021/05/24 04:04:24;;;;;;;4.40;1.60;;;;;;;17.05;41.73;99953.69;5080412;28;20444;-71
2021/05/24 04:06:53;;;;;;;5.30;1.70;;;;;;;17.59;40.66;99946.97;5079458;28;20487;-71
2021/05/24 04:09:20;;;;;;;1.90;1.20;;;;;;;18.00;40.02;99954.44;5079813;28;20463;-71
2021/05/24 04:11:46;;;;;;;2.77;1.37;;;;;;;18.11;39.61;99947.63;5080048;28;20908;-71
2021/05/24 04:14:13;;;;;;;3.13;1.40;;;;;;;18.75;38.41;99959.25;5081135;28;20647;-71
2021/05/24 04:16:39;;;;;;;3.20;1.50;;;;;;;18.60;38.42;99952.09;5080542;28;20769;-71
2021/05/24 04:19:08;;;;;;;2.37;1.03;;;;;;;19.99;35.29;99951.84;5080433;28;20484;-71
2021/05/24 04:21:35;;;;;;;4.07;1.20;;;;;;;19.55;36.97;99954.94;5079140;28;20479;-72
2021/05/24 04:24:01;;;;;;;1.53;1.07;;;;;;;20.58;34.48;99952.78;5080873;28;20463;-71
2021/05/24 04:26:27;;;;;;;6.60;1.73;;;;;;;21.19;33.63;99937.91;5082615;28;20511;-71
2021/05/24 04:28:53;;;;;;;3.10;1.30;;;;;;;22.18;32.07;99941.75;5084373;28;20447;-71
2021/05/24 04:31:20;;;;;;;2.43;1.10;;;;;;;24.18;29.26;99942.88;5083596;28;20506;-72
2021/05/24 04:33:47;;;;;;;2.73;0.93;;;;;;;24.23;28.57;99943.84;5084138;28;21272;-72
2021/05/24 04:36:13;;;;;;;2.53;0.73;;;;;;;21.39;33.21;99943.25;5083778;28;20480;-72
2021/05/24 04:38:39;;;;;;;1.30;0.90;;;;;;;20.73;34.90;99945.25;5083339;28;20467;-72
2021/05/24 04:41:05;;;;;;;1.37;0.70;;;;;;;16.11;44.76;99940.78;5083257;28;20514;-71
2021/05/24 04:43:34;;;;;;;2.03;1.03;;;;;;;14.99;47.41;99933.22;5084177;28;20455;-71
2021/05/24 04:46:00;;;;;;;1.97;0.80;;;;;;;14.91;48.00;99935.94;5083137;28;20476;-71
2021/05/24 04:48:27;;;;;;;1.67;1.00;;;;;;;14.47;49.19;99931.09;5083215;28;20436;-71
2021/05/24 04:50:53;;;;;;;2.07;1.03;;;;;;;14.42;49.13;99934.28;5083424;28;20475;-70
2021/05/24 04:53:19;;;;;;;1.50;1.00;;;;;;;14.29;49.56;99931.31;5083234;28;20599;-70
2021/05/24 04:55:45;;;;;;;1.93;0.70;;;;;;;14.46;48.97;99924.00;5083339;28;20510;-70
2021/05/24 04:58:12;;;;;;;2.20;1.00;;;;;;;14.88;48.02;99930.94;5084110;28;20447;-71
2021/05/24 05:00:38;;;;;;;2.00;0.90;;;;;;;14.57;48.55;99926.34;5082992;28;20476;-70
2021/05/24 05:03:05;;;;;;;3.87;0.93;;;;;;;14.80;48.70;99925.59;5083284;28;20985;-70
2021/05/24 05:05:33;;;;;;;2.80;1.00;;;;;;;15.21;47.45;99928.88;5082724;28;20468;-70
2021/05/24 05:08:00;;;;;;;1.33;0.77;;;;;;;15.52;46.53;99929.81;5075796;28;20456;-70
2021/05/24 05:10:26;;;;;;;1.33;0.70;;;;;;;17.36;41.74;99916.59;5082637;28;20472;-70
2021/05/24 05:12:52;;;;;;;1.80;0.80;;;;;;;18.98;38.85;99919.16;5083254;28;20463;-70
2021/05/24 05:15:18;;;;;;;1.63;0.77;;;;;;;19.07;38.44;99919.78;5082862;28;20498;-70
2021/05/24 05:17:44;;;;;;;2.23;0.97;;;;;;;19.96;36.61;99916.97;5083698;28;20435;-71
2021/05/24 05:20:12;;;;;;;1.13;0.60;;;;;;;19.77;35.76;99905.09;5082108;28;20513;-71
2021/05/24 05:22:39;;;;;;;1.53;0.90;;;;;;;19.92;36.04;99914.69;5082355;28;20845;-70
2021/05/24 05:25:07;;;;;;;2.40;0.70;;;;;;;20.72;34.47;99913.69;5082170;28;20960;-70
2021/05/24 05:27:33;;;;;;;2.00;1.07;;;;;;;20.34;34.40;99906.25;5083136;28;20448;-70
2021/05/24 05:29:59;;;;;;;1.40;0.60;;;;;;;20.62;34.72;99902.44;5082025;28;20527;-71
2021/05/24 05:32:25;;;;;;;2.70;0.60;;;;;;;21.71;32.62;99897.00;5081903;28;20507;-71
2021/05/24 05:34:51;;;;;;;1.80;0.73;;;;;;;20.78;33.89;99904.69;5082917;28;20957;-70
2021/05/24 05:37:20;;;;;;;2.10;0.80;;;;;;;22.42;31.89;99903.84;5081099;28;20511;-71
2021/05/24 05:39:49;;;;;;;1.73;0.50;;;;;;;20.00;35.24;99899.22;5081575;28;20740;-71
2021/05/24 05:42:16;;;;;;;1.27;0.70;;;;;;;20.53;35.25;99901.00;5082345;28;21049;-71
2021/05/24 05:44:42;;;;;;;1.77;0.70;;;;;;;20.62;34.91;99897.88;5083107;28;20436;-71
2021/05/24 05:47:08;;;;;;;1.43;0.70;;;;;;;21.54;33.16;99896.72;5082819;28;20479;-71
2021/05/24 05:49:34;;;;;;;1.03;0.53;;;;;;;20.89;33.73;99884.16;5081819;28;20452;-71
2021/05/24 05:52:01;;;;;;;2.07;0.70;;;;;;;21.11;33.65;99887.38;5081970;28;20486;-71
2021/05/24 05:54:27;;;;;;;1.50;0.70;;;;;;;21.17;33.29;99893.81;5082992;28;20544;-70
2021/05/24 05:56:54;;;;;;;0.70;0.50;;;;;;;21.57;32.87;99879.94;5081701;28;20495;-70
2021/05/24 05:59:21;;;;;;;1.43;0.70;;;;;;;22.84;31.33;99884.88;5081480;28;20463;-70
2021/05/24 06:01:47;;;;;;;2.93;0.60;;;;;;;22.19;32.16;99880.81;5082009;28;20483;-71
2021/05/24 06:04:13;;;;;;;2.00;0.80;;;;;;;22.51;31.40;99875.22;5082157;28;20455;-71
2021/05/24 06:06:40;;;;;;;1.60;0.70;;;;;;;21.51;33.23;99872.66;5081339;28;20484;-70
2021/05/24 06:09:06;;;;;;;1.53;0.70;;;;;;;20.94;33.69;99869.91;5081710;28;20454;-70
2021/05/24 06:11:32;;;;;;;1.50;0.83;;;;;;;22.26;32.04;99877.19;5081682;28;20506;-69
2021/05/24 06:13:59;;;;;;;1.50;0.73;;;;;;;21.69;32.72;99880.06;5082064;28;20964;-70
2021/05/24 06:16:26;;;;;;;2.90;0.90;;;;;;;21.87;32.38;99884.69;5081354;28;20494;-70
2021/05/24 06:18:52;;;;;;;1.67;0.60;;;;;;;22.78;31.77;99877.63;5081741;28;20456;-71
2021/05/24 06:21:18;;;;;;;3.53;0.90;;;;;;;22.18;31.62;99875.59;5081154;28;20636;-70
2021/05/24 06:23:46;;;;;;;1.00;0.60;;;;;;;21.79;32.72;99880.41;5081725;28;20456;-70
2021/05/24 06:26:12;;;;;;;1.40;0.60;;;;;;;20.42;35.30;99869.91;5078885;28;20480;-71
2021/05/24 06:28:39;;;;;;;3.03;0.80;;;;;;;21.74;33.52;99874.78;5081715;28;20444;-70
2021/05/24 06:31:06;;;;;;;2.23;0.80;;;;;;;21.73;32.91;99881.28;5081523;28;20998;-71
2021/05/24 06:33:32;;;;;;;1.50;0.57;;;;;;;23.11;31.03;99869.00;5082147;28;20850;-71
2021/05/24 06:35:58;;;;;;;1.37;0.60;;;;;;;21.85;32.64;99867.78;5081363;28;20484;-71
2021/05/24 06:38:24;;;;;;;1.30;0.83;;;;;;;21.26;33.66;99870.72;5081481;28;20432;-70
2021/05/24 06:40:51;;;;;;;0.90;0.50;;;;;;;22.75;31.48;99865.28;5080047;28;20499;-71
2021/05/24 06:43:17;;;;;;;1.90;0.80;;;;;;;23.64;30.19;99866.50;5081060;28;20459;-71
2021/05/24 06:45:43;;;;;;;1.47;0.67;;;;;;;24.76;28.85;99864.63;5080726;28;20553;-70
2021/05/24 06:48:10;;;;;;;1.47;0.57;;;;;;;23.16;30.53;99868.31;5081045;28;20468;-71
2021/05/24 06:50:36;;;;;;;1.60;0.83;;;;;;;24.56;27.76;99868.59;5080497;28;20851;-72
2021/05/24 06:53:02;;;;;;;1.13;0.70;;;;;;;21.96;32.98;99872.47;5081069;28;20471;-71
2021/05/24 06:55:28;;;;;;;3.83;1.27;;;;;;;23.00;31.42;99861.63;5080716;28;20468;-71
2021/05/24 06:57:55;;;;;;;3.53;0.60;;;;;;;23.33;29.95;99846.66;5081263;28;21010;-71
2021/05/24 07:00:21;;;;;;;2.80;0.73;;;;;;;22.53;31.21;99851.34;5079909;28;20451;-71
2021/05/24 07:02:47;;;;;;;2.80;0.70;;;;;;;23.11;30.54;99843.66;5081610;28;20486;-71
2021/05/24 07:05:15;;;;;;;2.50;0.80;;;;;;;23.12;29.80;99848.88;5080590;28;20443;-70
2021/05/24 07:07:42;;;;;;;3.37;0.70;;;;;;;22.90;30.57;99848.53;5081156;28;20476;-71
2021/05/24 07:10:09;;;;;;;1.33;0.50;;;;;;;22.52;31.10;99854.28;5080169;28;20490;-71
2021/05/24 07:12:35;;;;;;;2.80;0.77;;;;;;;22.65;31.34;99842.38;5081294;28;20838;-71
2021/05/24 07:15:03;;;;;;;3.80;0.83;;;;;;;21.68;32.29;99838.41;5080936;28;20538;-70
2021/05/24 07:17:29;;;;;;;1.33;0.47;;;;;;;24.15;29.02;99845.88;5081734;28;20461;-70
2021/05/24 07:19:56;;;;;;;1.50;0.80;;;;;;;22.63;30.95;99833.59;5080296;28;20476;-70
2021/05/24 07:22:23;;;;;;;1.93;0.87;;;;;;;22.98;30.61;99830.19;5074701;28;20863;-71
2021/05/24 07:24:51;;;;;;;2.23;0.73;;;;;;;23.88;28.96;99826.41;5080951;28;20444;-71
2021/05/24 07:27:18;;;;;;;3.47;0.63;;;;;;;23.56;29.17;99818.56;5079704;28;20476;-71
2021/05/24 07:29:44;;;;;;;3.30;0.80;;;;;;;23.42;29.46;99819.88;5080377;28;20456;-69
2021/05/24 07:32:10;;;;;;;2.10;0.60;;;;;;;24.52;27.43;99822.84;5080897;28;20549;-70
2021/05/24 07:34:37;;;;;;;2.20;0.50;;;;;;;23.42;27.81;99815.25;5081115;28;20460;-71
2021/05/24 07:37:04;;;;;;;1.80;0.90;;;;;;;24.02;28.75;99816.06;5080456;28;20918;-70
2021/05/24 07:39:31;;;;;;;2.03;0.70;;;;;;;23.80;28.60;99805.75;5080563;28;20910;-70
2021/05/24 07:42:00;;;;;;;3.93;0.60;;;;;;;26.45;25.91;99800.75;5079439;28;20566;-70
2021/05/24 07:44:27;;;;;;;3.97;0.80;;;;;;;25.39;26.22;99799.00;5080549;28;21015;-70
2021/05/24 07:46:53;;;;;;;2.30;0.60;;;;;;;24.28;28.44;99790.13;5080065;28;20471;-70
2021/05/24 07:49:20;;;;;;;3.27;0.60;;;;;;;23.82;28.55;99792.72;5079914;28;20454;-69
2021/05/24 07:51:47;;;;;;;3.13;0.60;;;;;;;24.72;27.18;99792.34;5071933;28;20476;-69
2021/05/24 07:54:13;;;;;;;3.40;0.70;;;;;;;22.92;28.99;99791.06;5080795;28;20478;-70
2021/05/24 07:56:40;;;;;;;2.40;1.07;;;;;;;22.93;29.68;99798.16;5079730;28;20498;-70
2021/05/24 07:59:06;;;;;;;2.10;0.63;;;;;;;22.70;29.68;99777.13;5080928;28;20471;-70
2021/05/24 08:01:32;;;;;;;4.17;0.80;;;;;;;25.41;25.96;99783.16;5083150;28;20480;-70
2021/05/24 08:03:59;;;;;;;4.33;0.97;;;;;;;23.96;27.61;99785.09;5084407;28;20451;-72
2021/05/24 08:06:25;;;;;;;1.77;0.67;;;;;;;23.33;28.20;99775.72;5082936;28;20468;-71
2021/05/24 08:08:51;;;;;;;1.30;0.50;;;;;;;23.63;28.09;99772.06;5084039;28;20444;-70
2021/05/24 08:11:17;;;;;;;3.80;0.77;;;;;;;23.16;27.37;99766.56;5083072;28;20475;-70
2021/05/24 08:13:44;;;;;;;6.40;0.70;;;;;;;24.04;27.84;99786.63;5083662;28;20456;-70
2021/05/24 08:16:13;;;;;;;2.60;0.70;;;;;;;22.90;28.32;99771.38;5083341;28;20476;-70
2021/05/24 08:18:39;;;;;;;1.47;0.60;;;;;;;23.48;27.51;99778.00;5072215;28;20461;-69
2021/05/24 08:21:06;;;;;;;1.53;0.60;;;;;;;24.66;26.59;99772.31;5063527;28;20483;-70
2021/05/24 08:23:32;;;;;;;1.27;0.70;;;;;;;24.66;25.59;99766.84;5076230;28;20961;-70
2021/05/24 08:25:59;;;;;;;1.30;0.43;;;;;;;25.79;26.30;99776.88;5079412;28;20503;-70
2021/05/24 08:28:25;;;;;;;1.67;0.70;;;;;;;27.19;24.40;99756.22;5083103;28;20471;-70
2021/05/24 08:30:53;;;;;;;3.37;0.60;;;;;;;25.41;25.31;99770.31;5083357;28;20491;-70
2021/05/24 08:33:21;;;;;;;1.60;0.60;;;;;;;26.11;24.19;99752.41;5083315;28;20443;-71
2021/05/24 08:35:47;;;;;;;3.27;0.87;;;;;;;24.15;27.67;99768.56;5082692;28;20460;-70
2021/05/24 08:38:13;;;;;;;3.87;0.70;;;;;;;23.75;27.11;99748.31;5082914;28;20436;-69
2021/05/24 08:40:40;;;;;;;1.00;0.50;;;;;;;25.44;25.34;99742.44;5081823;28;20720;-70
2021/05/24 08:43:07;;;;;;;1.30;0.50;;;;;;;24.34;26.16;99748.19;5083180;28;20444;-71
2021/05/24 08:45:37;;;;;;;2.00;0.87;;;;;;;23.22;27.41;99746.56;5082744;28;20472;-70
2021/05/24 08:48:06;;;;;;;1.60;0.80;;;;;;;25.54;24.47;99739.03;5082480;28;20463;-71
2021/05/24 08:50:33;;;;;;;3.33;0.63;;;;;;;24.06;26.04;99736.16;5083188;28;20621;-69
2021/05/24 08:52:59;;;;;;;3.00;0.70;;;;;;;24.24;25.87;99740.63;5083399;28;20541;-70
2021/05/24 08:55:25;;;;;;;1.10;0.63;;;;;;;23.82;26.60;99750.97;5081843;28;20468;-69
2021/05/24 08:57:51;;;;;;;2.17;0.70;;;;;;;25.12;25.55;99740.28;5083145;28;20866;-69
2021/05/24 09:00:20;;;;;;;0.80;0.50;;;;;;;22.89;27.50;99732.38;5083089;28;20432;-69
2021/05/24 09:02:48;;;;;;;2.57;0.70;;;;;;;23.48;27.48;99737.88;5082446;28;20527;-71
2021/05/24 09:05:15;;;;;;;0.77;0.50;;;;;;;22.37;28.29;99734.84;5082081;28;20908;-71
2021/05/24 09:07:49;;;;;;;1.10;0.67;;;;;;;23.67;26.47;99745.94;5082852;28;20444;-70
2021/05/24 09:10:16;;;;;;;1.77;0.60;;;;;;;23.60;26.01;99721.50;5081023;28;20491;-70
2021/05/24 09:12:42;;;;;;;1.30;0.77;;;;;;;24.18;26.42;99735.28;5082303;28;20820;-71
2021/05/24 09:15:12;;;;;;;3.47;0.80;;;;;;;24.41;26.60;99728.91;5082314;28;20423;-70
2021/05/24 09:17:43;;;;;;;2.20;0.83;;;;;;;24.12;26.30;99717.97;5082672;28;20455;-70
2021/05/24 09:20:26;;;;;;;1.17;0.50;;;;;;;23.21;27.91;99717.63;5082190;28;20466;-70
2021/05/24 09:23:12;;;;;;;2.60;0.70;;;;;;;22.41;27.92;99697.06;5081002;28;20462;-71
2021/05/24 09:25:50;;;;;;;2.10;0.73;;;;;;;23.12;28.03;99706.22;5081795;28;20483;-69
2021/05/24 09:28:41;;;;;;;1.70;0.70;;;;;;;23.07;27.08;99706.09;5082976;28;20440;-70
2021/05/24 09:31:11;;;;;;;2.53;0.87;;;;;;;23.57;26.59;99723.88;5056672;28;20492;-70
2021/05/24 09:33:38;;;;;;;1.30;0.60;;;;;;;23.42;26.77;99716.22;5082047;28;20456;-70
2021/05/24 09:36:06;;;;;;;1.53;0.77;;;;;;;23.85;25.71;99706.78;5081792;28;20475;-69
2021/05/24 09:38:38;;;;;;;1.67;0.70;;;;;;;24.11;25.44;99705.38;5081901;28;20432;-70
2021/05/24 09:41:05;;;;;;;1.10;0.67;;;;;;;23.43;27.33;99712.41;5081086;28;20484;-69
2021/05/24 09:43:35;;;;;;;2.73;0.70;;;;;;;22.78;27.14;99700.50;5082357;28;20463;-70
2021/05/24 09:46:13;;;;;;;1.50;0.57;;;;;;;22.31;25.71;99700.38;5080856;28;20471;-70
2021/05/24 09:48:40;;;;;;;2.87;0.67;;;;;;;22.50;26.31;99692.97;5082840;28;20463;-70
2021/05/24 09:51:09;;;;;;;2.87;0.60;;;;;;;22.92;26.25;99704.66;5081309;28;20511;-69
2021/05/24 09:53:35;;;;;;;1.40;0.60;;;;;;;22.93;25.66;99686.38;5081516;28;20455;-70
2021/05/24 09:56:06;;;;;;;1.43;0.80;;;;;;;24.60;23.96;99683.94;5081611;28;20480;-71
2021/05/24 09:58:33;;;;;;;2.57;0.60;;;;;;;24.93;23.88;99689.63;5062474;28;20465;-69
2021/05/24 10:01:13;;;;;;;2.50;0.63;;;;;;;23.28;24.71;99680.16;5060367;28;20507;-72
2021/05/24 10:03:41;;;;;;;1.47;0.63;;;;;;;23.49;24.49;99674.09;5061634;28;20465;-71
2021/05/24 10:06:08;;;;;;;1.97;0.80;;;;;;;26.19;21.53;99668.91;5060807;28;20788;-70
2021/05/24 10:08:34;;;;;;;4.80;0.67;;;;;;;27.33;19.98;99670.72;5060672;28;20449;-71
2021/05/24 10:11:01;;;;;;;1.00;0.50;;;;;;;25.16;21.82;99661.28;5060737;28;20496;-71
2021/05/24 10:13:28;;;;;;;1.33;0.50;;;;;;;24.14;23.52;99652.19;5061691;28;20993;-73
2021/05/24 10:16:00;;;;;;;1.73;0.60;;;;;;;24.04;22.97;99656.41;5059675;28;20473;-72
2021/05/24 10:18:26;;;;;;;0.83;0.40;;;;;;;24.33;21.88;99639.16;5062138;28;20441;-71
2021/05/24 10:20:53;;;;;;;3.43;0.50;;;;;;;26.80;20.33;99648.66;5060583;28;20894;-69
2021/05/24 10:23:21;;;;;;;1.70;0.70;;;;;;;27.67;19.09;99648.34;5072973;28;20529;-68
2021/05/24 10:25:48;;;;;;;1.23;0.40;;;;;;;24.86;20.84;99651.56;5079688;28;20468;-70
2021/05/24 10:28:15;;;;;;;1.00;0.50;;;;;;;25.10;21.33;99643.13;5079237;28;20460;-70
2021/05/24 10:30:42;;;;;;;1.90;0.60;;;;;;;24.30;21.53;99629.53;5078426;28;20942;-72
2021/05/24 10:33:13;;;;;;;1.13;0.70;;;;;;;24.93;22.73;99621.28;5078003;28;20454;-71
2021/05/24 10:35:41;;;;;;;1.20;0.60;;;;;;;25.08;21.18;99615.22;5079394;28;20476;-70
2021/05/24 10:38:30;;;;;;;1.03;0.40;;;;;;;24.51;22.57;99610.75;5080038;28;20562;-70
2021/05/24 10:41:03;;;;;;;1.60;0.60;;;;;;;24.46;23.06;99608.78;5074818;28;20484;-69
2021/05/24 10:43:39;;;;;;;2.27;1.33;;;;;;;26.05;21.12;99594.53;5079437;28;20463;-71
2021/05/24 10:46:35;;;;;;;1.67;0.60;;;;;;;27.05;20.81;99601.38;5078760;28;20494;-71
2021/05/24 10:49:05;;;;;;;3.17;0.53;;;;;;;25.45;22.05;99588.13;5081503;28;20440;-70
2021/05/24 10:51:58;;;;;;;2.23;0.40;;;;;;;25.45;21.94;99590.00;5078746;28;21572;-71
2021/05/24 10:54:31;;;;;;;2.33;0.60;;;;;;;24.76;20.99;99578.41;5079956;28;20482;-69
2021/05/24 10:57:14;;;;;;;1.20;0.60;;;;;;;23.87;22.34;99579.91;5079108;28;20491;-69
2021/05/24 10:59:58;;;;;;;1.20;0.70;;;;;;;25.35;21.13;99574.31;5078591;28;20443;-69
2021/05/24 11:02:30;;;;;;;2.23;0.77;;;;;;;26.14;20.99;99574.88;5078795;28;20499;-71
2021/05/24 11:04:58;;;;;;;3.30;0.43;;;;;;;26.79;19.59;99571.06;5079319;28;20440;-69
2021/05/24 11:07:30;;;;;;;2.07;0.60;;;;;;;25.91;21.33;99566.69;5078781;28;20472;-67
2021/05/24 11:10:29;;;;;;;1.37;0.40;;;;;;;26.27;21.05;99563.50;5080224;28;20526;-66
2021/05/24 11:12:57;;;;;;;0.80;0.40;;;;;;;26.21;20.04;99564.53;5080285;28;20487;-69
2021/05/24 11:15:24;;;;;;;5.90;0.50;;;;;;;25.14;21.29;99552.13;5078150;28;20452;-68
2021/05/24 11:18:19;;;;;;;1.30;0.60;;;;;;;25.62;20.42;99546.13;5080218;28;20443;-72
2021/05/24 11:20:49;;;;;;;1.10;0.47;;;;;;;24.00;22.60;99559.66;5078094;28;20468;-70
2021/05/24 11:23:27;;;;;;;1.10;0.80;;;;;;;23.20;23.10;99547.72;5076635;28;20452;-68
2021/05/24 11:26:14;;;;;;;1.00;0.43;;;;;;;24.71;23.31;99548.25;5078640;28;20944;-68
2021/05/24 11:28:42;;;;;;;2.50;0.60;;;;;;;23.29;23.00;99553.63;5080363;28;20534;-68
2021/05/24 11:31:13;;;;;;;1.17;0.57;;;;;;;24.74;22.77;99542.28;5078191;28;20510;-70
2021/05/24 11:33:42;;;;;;;1.30;0.70;;;;;;;26.02;20.80;99540.28;5078648;28;20460;-68
2021/05/24 11:36:09;;;;;;;1.33;0.50;;;;;;;25.63;21.49;99529.47;5080891;28;20498;-68